createdAt,value
2018-09-26T00:02:08.012Z,11.50
2018-09-26T00:07:11.611Z,11.37
2018-09-26T00:12:15.236Z,11.37
2018-09-26T00:17:18.814Z,10.90
2018-09-26T00:22:22.317Z,10.70
2018-09-26T00:27:25.845Z,12.33
2018-09-26T00:32:29.394Z,10.37
2018-09-26T00:37:32.919Z,9.43
2018-09-26T00:42:36.799Z,9.13
2018-09-26T00:47:40.386Z,9.13
2018-09-26T00:52:44.282Z,8.67
2018-09-26T00:57:47.862Z,8.70
2018-09-26T01:02:51.363Z,8.57
2018-09-26T01:07:54.933Z,7.77
2018-09-26T01:12:58.645Z,8.10
2018-09-26T01:18:02.200Z,7.43
2018-09-26T01:23:05.772Z,6.63
2018-09-26T01:28:09.277Z,6.70
2018-09-26T01:33:12.785Z,7.90
2018-09-26T01:38:17.177Z,6.90
2018-09-26T01:43:20.733Z,7.50
2018-09-26T01:48:24.303Z,8.00
2018-09-26T01:53:27.804Z,6.10
2018-09-26T01:58:31.448Z,7.40
2018-09-26T02:03:34.875Z,7.03
2018-09-26T02:08:38.837Z,6.20
2018-09-26T02:13:42.358Z,6.47
2018-09-26T02:18:46.181Z,6.13
2018-09-26T02:23:49.825Z,5.93
2018-09-26T02:28:53.443Z,6.37
2018-09-26T02:33:57.028Z,6.93
2018-09-26T02:39:00.563Z,6.97
2018-09-26T02:44:04.150Z,7.70
2018-09-26T02:49:07.952Z,7.50
2018-09-26T02:54:11.572Z,7.90
2018-09-26T02:59:15.083Z,6.07
2018-09-26T03:04:18.626Z,6.60
2018-09-26T03:09:22.218Z,7.60
2018-09-26T03:14:25.884Z,6.77
2018-09-26T03:19:29.419Z,7.53
2018-09-26T03:24:33.068Z,7.13
2018-09-26T03:29:36.903Z,8.03
2018-09-26T03:34:40.404Z,7.13
2018-09-26T03:39:43.932Z,9.47
2018-09-26T03:44:47.498Z,8.97
2018-09-26T03:49:51.002Z,8.83
2018-09-26T03:54:54.549Z,8.70
2018-09-26T03:59:58.161Z,8.57
2018-09-26T04:05:01.732Z,8.87
2018-09-26T04:10:05.251Z,8.20
2018-09-26T04:15:08.865Z,8.33
2018-09-26T04:20:12.509Z,8.70
2018-09-26T04:25:16.103Z,8.30
2018-09-26T04:30:22.595Z,8.60
2018-09-26T04:35:26.163Z,7.27
2018-09-26T04:40:29.887Z,6.90
2018-09-26T04:45:33.408Z,6.70
2018-09-26T04:50:36.977Z,7.90
2018-09-26T04:55:40.470Z,6.63
2018-09-26T05:00:47.807Z,6.30
2018-09-26T05:05:51.477Z,5.37
2018-09-26T05:10:55.101Z,5.77
2018-09-26T05:15:58.629Z,6.50
2018-09-26T05:21:03.407Z,6.07
2018-09-26T05:26:07.168Z,8.03
2018-09-26T05:31:10.774Z,9.67
2018-09-26T05:36:14.355Z,10.23
2018-09-26T05:41:17.884Z,17.80
2018-09-26T05:46:21.547Z,16.17
2018-09-26T05:51:25.140Z,12.60
2018-09-26T05:56:28.748Z,8.37
2018-09-26T06:01:32.333Z,10.13
2018-09-26T06:06:35.975Z,6.87
2018-09-26T06:11:39.579Z,9.23
2018-09-26T06:16:43.133Z,8.63
2018-09-26T06:21:46.699Z,10.80
2018-09-26T06:26:50.207Z,8.57
2018-09-26T06:31:53.775Z,6.27
2018-09-26T06:36:57.400Z,7.17
2018-09-26T06:42:01.863Z,7.40
2018-09-26T06:47:05.567Z,6.67
2018-09-26T06:52:09.143Z,4.67
2018-09-26T06:57:14.424Z,5.00
2018-09-26T07:02:19.034Z,4.40
2018-09-26T07:07:26.337Z,3.00
2018-09-26T07:12:30.635Z,2.50
2018-09-26T07:17:35.640Z,1.70
2018-09-26T07:22:39.180Z,1.53
2018-09-26T07:27:42.696Z,0.87
2018-09-26T07:32:46.533Z,1.40
2018-09-26T07:37:50.104Z,1.33
2018-09-26T07:42:53.885Z,1.67
2018-09-26T07:47:57.521Z,1.50
2018-09-26T07:53:01.955Z,1.47
2018-09-26T07:58:05.614Z,2.03
2018-09-26T08:03:09.210Z,1.07
2018-09-26T08:08:12.900Z,1.90
2018-09-26T08:13:16.514Z,1.60
2018-09-26T08:18:20.207Z,1.73
2018-09-26T08:23:30.266Z,1.90
2018-09-26T08:28:38.551Z,1.47
2018-09-26T08:33:42.085Z,1.40
2018-09-26T08:38:45.760Z,1.07
2018-09-26T08:43:51.714Z,1.73
2018-09-26T08:48:59.092Z,1.80
2018-09-26T08:54:02.724Z,1.57
2018-09-26T08:59:06.663Z,1.37
2018-09-26T09:04:10.234Z,1.43
2018-09-26T09:09:13.864Z,2.17
2018-09-26T09:14:17.602Z,1.50
2018-09-26T09:19:21.052Z,1.50
2018-09-26T09:24:31.215Z,1.60
2018-09-26T09:29:34.817Z,1.53
2018-09-26T09:34:38.353Z,1.40
2018-09-26T09:39:41.955Z,1.50
2018-09-26T09:44:45.497Z,1.57
2018-09-26T09:49:49.047Z,2.03
2018-09-26T09:54:52.613Z,2.00
2018-09-26T09:59:56.206Z,2.17
2018-09-26T10:05:00.872Z,2.00
2018-09-26T10:10:04.425Z,1.90
2018-09-26T10:15:08.029Z,1.60
2018-09-26T10:20:11.600Z,2.43
2018-09-26T10:25:15.373Z,1.67
2018-09-26T10:30:28.414Z,1.43
2018-09-26T10:35:32.727Z,1.70
2018-09-26T10:40:36.331Z,1.83
2018-09-26T10:45:39.869Z,1.90
2018-09-26T10:50:43.506Z,2.00
2018-09-26T10:55:47.075Z,1.73
2018-09-26T11:00:50.566Z,1.87
2018-09-26T11:05:54.213Z,1.50
2018-09-26T11:10:57.749Z,2.00
2018-09-26T11:16:01.483Z,2.20
2018-09-26T11:21:05.167Z,1.60
2018-09-26T11:26:08.757Z,2.07
2018-09-26T11:31:12.471Z,2.17
2018-09-26T11:36:16.065Z,1.60
2018-09-26T11:41:22.523Z,2.07
2018-09-26T11:46:32.360Z,2.43
2018-09-26T11:51:41.248Z,1.37
2018-09-26T11:56:48.234Z,1.73
2018-09-26T12:01:51.938Z,2.13
2018-09-26T12:06:55.551Z,1.77
2018-09-26T12:11:59.452Z,1.70
2018-09-26T12:17:03.021Z,2.27
2018-09-26T12:22:06.889Z,1.60
2018-09-26T12:27:10.397Z,2.17
2018-09-26T12:32:14.248Z,2.10
2018-09-26T12:37:17.776Z,1.77
2018-09-26T12:42:21.347Z,2.07
2018-09-26T12:47:24.883Z,2.00
2018-09-26T12:52:28.433Z,1.60
2018-09-26T12:57:32.065Z,1.50
2018-09-26T13:02:35.815Z,1.23
2018-09-26T13:07:39.428Z,2.10
2018-09-26T13:12:42.999Z,2.07
2018-09-26T13:17:46.622Z,1.00
2018-09-26T13:22:50.321Z,1.30
2018-09-26T13:27:59.921Z,1.47
2018-09-26T13:33:09.247Z,1.20
2018-09-26T13:38:26.079Z,1.10
2018-09-26T13:43:29.903Z,1.37
2018-09-26T13:48:35.057Z,1.73
2018-09-26T13:53:40.863Z,1.53
2018-09-26T13:58:50.687Z,1.13
2018-09-26T14:03:54.216Z,1.10
2018-09-26T14:08:57.857Z,1.23
2018-09-26T14:14:01.433Z,1.40
2018-09-26T14:19:05.090Z,1.50
2018-09-26T14:24:09.036Z,1.77
2018-09-26T14:29:12.937Z,1.40
2018-09-26T14:34:16.839Z,1.00
2018-09-26T14:39:20.947Z,1.10
2018-09-26T14:44:24.852Z,1.20
2018-09-26T14:49:28.750Z,1.43
2018-09-26T14:54:32.578Z,1.73
2018-09-26T14:59:36.385Z,1.53
2018-09-26T15:04:40.263Z,1.50
2018-09-26T15:09:44.141Z,1.10
2018-09-26T15:14:48.022Z,1.83
2018-09-26T15:19:57.163Z,1.30
2018-09-26T15:25:00.965Z,1.43
2018-09-26T15:30:05.038Z,1.47
2018-09-26T15:35:08.968Z,1.97
2018-09-26T15:40:12.922Z,1.43
2018-09-26T15:45:16.701Z,1.40
2018-09-26T15:50:20.564Z,1.07
2018-09-26T15:55:24.405Z,1.67
2018-09-26T16:00:28.757Z,1.50
2018-09-26T16:05:32.456Z,1.13
2018-09-26T16:10:36.083Z,1.93
2018-09-26T16:15:39.708Z,1.20
2018-09-26T16:20:43.433Z,1.37
2018-09-26T16:25:47.098Z,1.93
2018-09-26T16:30:50.964Z,1.80
2018-09-26T16:35:54.528Z,1.60
2018-09-26T16:40:58.356Z,2.37
2018-09-26T16:46:02.248Z,1.97
2018-09-26T16:51:06.353Z,2.20
2018-09-26T16:56:09.934Z,2.40
2018-09-26T17:01:13.454Z,1.90
2018-09-26T17:06:17.022Z,1.93
2018-09-26T17:11:20.711Z,2.17
2018-09-26T17:16:24.602Z,2.00
2018-09-26T17:21:28.140Z,2.20
2018-09-26T17:26:31.860Z,2.07
2018-09-26T17:31:35.896Z,3.00
2018-09-26T17:36:39.531Z,2.50
2018-09-26T17:41:43.469Z,2.00
2018-09-26T17:46:47.223Z,2.37
2018-09-26T17:51:51.594Z,2.70
2018-09-26T17:56:57.341Z,1.77
2018-09-26T18:02:01.116Z,3.07
2018-09-26T18:07:04.695Z,3.40
2018-09-26T18:12:15.327Z,2.97
2018-09-26T18:17:18.958Z,3.50
2018-09-26T18:22:22.468Z,1.70
2018-09-26T18:27:26.098Z,2.33
2018-09-26T18:32:29.623Z,2.40
2018-09-26T18:37:33.220Z,1.87
2018-09-26T18:42:36.866Z,2.57
2018-09-26T18:47:40.513Z,2.50
2018-09-26T18:52:44.126Z,3.00
2018-09-26T18:57:47.875Z,2.70
2018-09-26T19:02:53.031Z,2.60
2018-09-26T19:07:58.067Z,2.67
2018-09-26T19:13:03.088Z,2.53
2018-09-26T19:18:09.483Z,2.80
2018-09-26T19:23:14.372Z,2.10
2018-09-26T19:28:19.848Z,2.80
2018-09-26T19:33:25.231Z,2.37
2018-09-26T19:38:30.746Z,2.47
2018-09-26T19:43:35.803Z,2.07
2018-09-26T19:48:41.367Z,2.07
2018-09-26T19:53:46.316Z,1.93
2018-09-26T19:58:52.212Z,2.70
2018-09-26T20:03:57.074Z,1.93
2018-09-26T20:09:02.636Z,2.37
2018-09-26T20:14:07.549Z,2.27
2018-09-26T20:19:11.451Z,2.10
2018-09-26T20:24:15.407Z,3.00
2018-09-26T20:29:19.050Z,2.10
2018-09-26T20:34:22.591Z,2.00
2018-09-26T20:39:26.129Z,2.27
2018-09-26T20:44:29.711Z,2.17
2018-09-26T20:49:33.517Z,3.17
2018-09-26T20:54:37.140Z,2.30
2018-09-26T20:59:40.630Z,2.63
2018-09-26T21:04:44.319Z,2.80
2018-09-26T21:09:47.892Z,2.73
2018-09-26T21:14:51.597Z,2.40
2018-09-26T21:19:55.225Z,2.03
2018-09-26T21:24:59.334Z,2.90
2018-09-26T21:30:03.679Z,1.93
2018-09-26T21:35:08.363Z,2.53
2018-09-26T21:40:12.001Z,2.60
2018-09-26T21:45:15.554Z,2.63
2018-09-26T21:50:19.379Z,2.33
2018-09-26T21:55:22.869Z,3.70
2018-09-26T22:00:29.190Z,3.27
2018-09-26T22:05:32.694Z,3.13
2018-09-26T22:10:36.299Z,3.27
2018-09-26T22:15:39.874Z,2.73
2018-09-26T22:20:45.280Z,3.67
2018-09-26T22:25:48.907Z,3.40
2018-09-26T22:30:52.552Z,3.17
2018-09-26T22:35:56.080Z,3.87
2018-09-26T22:40:59.703Z,3.47
2018-09-26T22:46:03.232Z,4.67
2018-09-26T22:51:06.832Z,3.53
2018-09-26T22:56:10.346Z,4.37
2018-09-26T23:01:13.988Z,2.90
2018-09-26T23:06:17.561Z,3.67
2018-09-26T23:11:21.197Z,3.63
2018-09-26T23:16:24.927Z,3.87
2018-09-26T23:21:28.479Z,3.77
2018-09-26T23:26:32.085Z,3.53
2018-09-26T23:31:35.600Z,3.20
2018-09-26T23:36:39.117Z,3.00
2018-09-26T23:41:42.718Z,2.67
2018-09-26T23:46:46.322Z,3.47
2018-09-26T23:51:49.916Z,3.00
2018-09-26T23:56:53.477Z,2.70
